-> Other stations

1455

Speed(max): 1.1(1.6)knots
Direction:126° ( SE)
Temperature: 16.2°C
Arrived: 2026-05-04 20:05:51 CEST

Past data:
hh:mmknots
Dir (°)
°C
20:03 1.1 1.6 SE(125) 16.2
20:01 1.1 2.7 SE(125) 16.2
19:59 1.1 1.6 SE(125) 16.2
19:57 1.6 2.7 SE(127) 16.3
19:55 1.6 2.2 SE(129) 16.5
19:53 2.2 2.7 SE(125) 16.5
19:51 2.7 4.3 SE(127) 16.6
19:49 3.2 4.3 SE(137) 16.6
19:47 3.2 4.9 SE(139) 16.7
19:45 2.7 4.9 SE(140) 16.7
19:43 2.7 4.3 SE(140) 16.8
19:41 3.2 4.9 SE(142) 16.8
19:39 2.7 4.3 SE(134) 17.0
19:37 1.6 2.7 ESE(114) 17.0
15 min. averages:
hh:mmknots
Dir (°)
°C
20:00 2.2 4.9 SE(131) 16.5
19:45 2.7 4.9 ESE(121) 17.0
19:30 3.8 7 ESE(114) 17.4
19:15 5.4 8.1 ESE(114) 17.7
19:00 6.5 8.6 ESE(107) 17.9
18:45 6.5 8.6 ESE(117) 18.1
18:30 5.4 9.2 ESE(107) 18.4
18:15 4.9 8.1 ESE(117) 18.2
18:00 4.9 8.6 ESE(108) 18.4
17:45 5.9 8.6 ESE(120) 18.5
17:30 5.9 8.1 ESE(119) 18.7
17:15 4.9 8.1 ESE(117) 19.9
17:00 4.3 7.6 ESE(122) 21.6
16:45 4.9 8.1 ESE(108) 21.8
16:30 4.3 7 ESE(119) 21.7
Stations at HR:
1455
-> Other regions

Desktop view
Data provided by Holfuy.
© Holfuy Weather 2026